Latest Weather Observations for Camooweal

IDD60801

Issued at 10:11 pm CST Monday 6 February 2023 (issued every 10 minutes, with the page automatically refreshed every 10 minutes)

About weather observations | Map of weather stations | Latest weather observations for NT | Other Formats
Station Details ID: 037010 Name: CAMOOWEAL TOWNSHIP Lat: -19.92 Lon: 138.12 Height: 231.2 m
Data from the previous 72 hours. | See also: Recent months at Camooweal
Date/Time
CST
Temp
°C
App
Temp
°C
Dew
Point
°C
Rel
Hum
%
Delta-T
°C
Wind Press
QNH
hPa
Press
MSL
hPa
Rain since
9am
mm
Dir  Spd
km/h
Gust
km/h
Spd
kts
Gust
kts
06/10:00pm 25.8 28.6 23.7 88 1.5 SSE 15 20 8 11 1009.0 1007.3 4.0
06/09:30pm 25.8 28.5 23.5 87 1.6 S 15 20 8 11 1008.8 1007.1 4.0
06/09:00pm 26.0 28.3 23.5 86 1.7 SSE 17 24 9 13 1008.6 1006.9 4.0
06/08:30pm 26.6 28.8 23.3 82 2.3 SSE 17 24 9 13 1008.3 1006.6 4.0
06/08:00pm 26.6 27.8 22.2 77 3.0 SE 19 26 10 14 1008.3 1006.6 4.0
06/07:30pm 27.9 29.5 24.5 82 2.4 S 24 35 13 19 1007.9 1006.1 4.0
06/07:00pm 28.5 31.0 25.3 83 2.3 S 22 28 12 15 1007.4 1005.6 4.0
06/06:30pm 30.0 33.0 25.5 77 3.2 SSW 20 28 11 15 1006.9 1005.1 4.0
06/06:00pm 31.4 35.2 25.3 70 4.3 SW 15 19 8 10 1006.4 1004.6 4.0
06/05:30pm 32.6 36.8 25.4 66 5.2 SSW 13 20 7 11 1006.0 1004.3 4.0
06/05:00pm 32.7 37.6 25.2 64 5.4 WSW 9 13 5 7 1005.9 1004.2 4.0
06/04:30pm 32.0 36.7 24.3 63 5.4 SW 7 11 4 6 1005.8 1004.1 4.0
06/04:00pm 31.4 35.6 25.3 70 4.3 SW 13 17 7 9 1005.8 1004.1 4.0
06/03:30pm 32.0 36.9 25.8 69 4.5 SSW 11 19 6 10 1006.3 1004.5 4.0
06/03:00pm 31.2 36.7 24.6 68 4.7 NNE 4 11 2 6 1007.0 1005.2 4.0
06/02:30pm 31.2 36.1 25.3 71 4.2 SW 9 13 5 7 1007.3 1005.5 4.0
06/02:00pm 30.6 36.1 26.1 77 3.2 SSW 9 17 5 9 1007.6 1005.8 4.0
06/01:30pm 29.6 34.0 25.1 77 3.2 S 11 17 6 9 1008.0 1006.2 4.0
06/01:00pm 28.5 32.8 25.5 84 2.1 S 13 17 7 9 1008.4 1006.7 4.0
06/12:30pm 27.1 30.3 24.9 88 1.5 S 17 22 9 12 1008.8 1007.1 3.8
06/12:00pm 26.2 28.3 24.1 88 1.5 SSW 20 32 11 17 1009.1 1007.4 3.8
06/11:30am 29.0 32.0 24.6 77 3.1 ENE 17 26 9 14 1009.0 1007.3 3.8
06/11:00am 28.1 30.7 24.9 83 2.3 E 20 30 11 16 1009.1 1007.4 3.8
06/10:30am 26.1 29.9 24.7 92 1.0 E 13 20 7 11 1009.5 1007.8 3.6
06/10:00am 27.6 30.3 24.2 82 2.4 ENE 17 22 9 12 1009.4 1007.7 0.4
06/09:30am 29.3 32.7 24.0 73 3.7 ESE 13 22 7 12 1009.3 1007.6 0.0
06/09:00am 28.7 31.0 23.4 73 3.7 E 17 22 9 12 1009.6 1007.9 0.0
06/08:30am 27.8 30.7 23.2 76 3.2 E 13 19 7 10 1009.4 1007.7 0.0
06/08:00am 27.6 30.5 23.2 77 3.0 E 13 19 7 10 1009.3 1007.6 0.0
06/07:30am 26.2 29.3 22.9 82 2.3 ESE 11 13 6 7 1009.2 1007.5 0.0
06/07:00am 25.8 29.4 23.1 85 1.8 ESE 9 11 5 6 1008.6 1006.9 0.0
06/06:30am 25.3 28.4 22.2 83 2.1 E 9 13 5 7 1008.4 1006.7 0.0
06/06:00am 25.3 27.9 22.0 82 2.2 ESE 11 15 6 8 1008.2 1006.4 0.0
06/05:30am 25.1 28.3 21.6 81 2.3 ESE 7 9 4 5 1007.8 1006.0 0.0
06/05:00am 25.7 28.8 21.4 77 2.9 ESE 7 9 4 5 1007.4 1005.6 0.0
06/04:30am 25.6 28.2 20.4 73 3.4 S 7 7 4 4 1007.3 1005.5 0.0
06/04:00am 25.8 28.6 20.4 72 3.6 SE 6 7 3 4 1007.1 1005.3 0.0
06/03:30am 25.5 27.3 18.4 65 4.6 SE 6 7 3 4 1007.3 1005.5 0.0
06/03:00am 25.3 28.2 18.2 64 4.5 CALM 0 0 0 0 1007.1 1005.3 0.0
06/02:30am 25.4 27.8 17.1 60 5.2 CALM 0 0 0 0 1007.0 1005.2 0.0
06/02:00am 25.7 27.7 16.0 55 6.0 CALM 0 0 0 0 1007.4 1005.6 0.0
06/01:30am 25.6 26.6 15.3 53 6.3 SSE 4 6 2 3 1007.6 1005.8 0.0
06/01:00am 25.8 25.1 13.3 46 7.4 SE 9 9 5 5 1007.7 1005.9 0.0
06/12:30am 26.2 24.9 12.6 43 8.0 SE 11 15 6 8 1008.2 1006.4 0.0
06/12:00am 26.1 24.4 12.5 42 7.9 ESE 13 17 7 9 1008.6 1006.9 0.0
 
Date/Time
CST
Temp
°C
App
Temp
°C
Dew
Point
°C
Rel
Hum
%
Delta-T
°C
Wind Press
QNH
hPa
Press
MSL
hPa
Rain since
9am
mm
Dir  Spd
km/h
Gust
km/h
Spd
kts
Gust
kts
05/11:30pm 27.6 24.5 11.6 37 9.3 SSE 19 26 10 14 1008.5 1006.8 0.0
05/11:00pm 26.6 25.1 13.0 43 8.0 S 13 19 7 10 1008.4 1006.7 0.0
05/10:30pm 25.8 24.5 13.6 46 7.3 S 13 17 7 9 1008.4 1006.7 0.0
05/10:00pm 26.1 23.9 13.2 44 7.6 S 17 20 9 11 1008.2 1006.4 0.0
05/09:30pm 26.5 24.3 13.3 44 7.8 S 17 24 9 13 1008.0 1006.2 0.0
05/09:00pm 25.5 24.7 15.2 53 6.3 SSW 13 17 7 9 1007.7 1005.9 0.0
05/08:30pm 26.4 25.8 14.5 48 7.2 SSW 11 13 6 7 1007.6 1005.8 0.0
05/08:00pm 28.3 26.0 13.0 39 9.1 SSW 17 20 9 11 1007.2 1005.4 0.0
05/07:30pm 29.6 27.2 12.5 35 10.2 SSW 17 22 9 12 1006.9 1005.1 0.0
05/07:00pm 30.7 28.3 12.6 33 10.8 SSW 17 24 9 13 1006.5 1004.7 0.0
05/06:30pm 32.7 29.5 11.8 28 12.4 SSW 20 28 11 15 1006.3 1004.5 0.0
05/06:00pm 33.8 30.7 11.6 26 13.2 SSW 19 28 10 15 1005.7 1004.0 0.0
05/05:30pm 34.3 31.3 12.0 25 13.4 S 19 26 10 14 1005.4 1003.7 0.0
05/05:00pm 34.8 32.4 12.5 26 13.5 S 17 24 9 13 1005.4 1003.7 0.0
05/04:30pm 34.9 31.3 12.0 25 13.8 S 22 37 12 20 1005.5 1003.8 0.0
05/04:00pm 35.2 33.0 13.4 27 13.4 SSE 17 24 9 13 1005.7 1004.0 0.0
05/03:30pm 35.1 32.9 12.1 25 13.9 SSE 15 28 8 15 1005.8 1004.1 0.0
05/03:00pm 35.0 32.2 12.6 26 13.6 SSE 19 30 10 16 1006.4 1004.6 0.0
05/02:30pm 35.0 32.8 12.0 25 13.9 SE 15 24 8 13 1006.5 1004.7 0.0
05/02:00pm 34.6 32.5 12.3 26 13.4 SE 15 26 8 14 1006.9 1005.1 0.0
05/01:30pm 34.5 31.9 13.3 27 13.0 SE 19 30 10 16 1007.4 1005.6 0.0
05/01:00pm 33.9 31.8 12.3 27 13.0 SE 15 26 8 14 1007.7 1005.9 0.0
05/12:30pm 33.1 29.8 11.6 27 12.8 SE 20 28 11 15 1008.1 1006.3 0.0
05/12:00pm 32.9 29.5 12.5 29 12.3 SE 22 35 12 19 1008.5 1006.8 0.0
05/11:30am 32.5 29.7 12.7 30 11.9 SE 19 28 10 15 1008.9 1007.2 0.0
05/11:00am 31.2 27.5 11.6 30 11.5 SSE 22 35 12 19 1009.3 1007.6 0.0
05/10:30am 30.4 26.6 12.3 33 10.8 SE 24 32 13 17 1009.4 1007.7 0.0
05/10:00am 29.3 25.2 11.4 33 10.4 SSE 24 33 13 18 1009.6 1007.9 0.0
05/09:30am 28.4 24.8 11.9 36 9.7 SSE 22 33 12 18 1009.6 1007.9 0.0
05/09:00am 26.7 22.8 10.8 37 9.1 SSE 22 32 12 17 1009.6 1007.9 0.0
05/08:30am 25.5 21.7 11.3 41 8.1 S 22 30 12 16 1009.5 1007.8 0.0
05/08:00am 24.0 20.7 11.0 44 7.3 S 19 28 10 15 1009.4 1007.7 0.0
05/07:30am 21.9 19.2 11.6 52 5.8 S 17 22 9 12 1009.4 1007.7 0.0
05/07:00am 18.2 17.6 13.5 74 2.7 SW 9 13 5 7 1009.1 1007.4 0.0
05/06:30am 16.5 15.4 13.0 80 2.0 SSW 11 13 6 7 1008.7 1007.0 0.0
05/06:00am 15.6 14.7 12.5 82 1.7 SSW 9 13 5 7 1008.3 1006.6 0.0
05/05:30am 15.8 14.5 12.5 81 1.8 SSW 11 13 6 7 1008.0 1006.2 0.0
05/05:00am 16.2 15.3 12.7 80 2.0 SSW 9 11 5 6 1007.9 1006.1 0.0
05/04:30am 16.5 15.7 12.8 79 2.1 SSW 9 13 5 7 1007.9 1006.1 0.0
05/04:00am 16.7 15.8 12.7 77 2.2 SSW 9 11 5 6 1007.9 1006.1 0.0
05/03:30am 17.1 16.1 12.4 74 2.6 SSW 9 11 5 6 1007.8 1006.0 0.0
05/03:00am 17.6 16.7 12.7 73 2.8 SSW 9 11 5 6 1007.9 1006.1 0.0
05/02:30am 18.0 17.1 12.7 71 3.0 SSW 9 9 5 5 1007.9 1006.1 0.0
05/02:00am 17.8 17.0 12.9 73 2.8 SSW 9 11 5 6 1008.0 1006.2 0.0
05/01:30am 17.8 17.1 13.1 74 2.7 SSW 9 9 5 5 1008.1 1006.3 0.0
05/01:00am 17.9 17.2 13.2 74 2.7 SSW 9 9 5 5 1008.3 1006.6 0.0
05/12:30am 18.1 17.5 13.4 74 2.7 SSW 9 11 5 6 1008.6 1006.9 0.0
05/12:00am 18.4 17.8 13.5 73 2.8 SSW 9 9 5 5 1009.0 1007.3 0.0
 
Date/Time
CST
Temp
°C
App
Temp
°C
Dew
Point
°C
Rel
Hum
%
Delta-T
°C
Wind Press
QNH
hPa
Press
MSL
hPa
Rain since
9am
mm
Dir  Spd
km/h
Gust
km/h
Spd
kts
Gust
kts
04/11:30pm 18.8 18.2 13.4 71 3.1 SSW 9 11 5 6 1009.2 1007.5 0.0
04/11:00pm 19.3 18.2 13.0 67 3.6 SSW 11 11 6 6 1009.3 1007.6 0.0
04/10:30pm 20.3 18.8 11.8 58 4.8 SSW 11 13 6 7 1009.3 1007.6 0.0
04/10:00pm 21.8 19.5 10.3 48 6.3 S 13 17 7 9 1009.3 1007.6 0.0
04/09:30pm 21.6 19.5 11.0 51 5.9 S 13 15 7 8 1009.0 1007.3 0.0
04/09:00pm 23.1 20.4 10.2 44 7.1 S 15 17 8 9 1008.8 1007.1 0.0
04/08:30pm 24.0 21.2 9.9 41 7.8 S 15 19 8 10 1008.6 1006.9 0.0
04/08:00pm 24.3 21.6 10.2 41 7.9 S 15 17 8 9 1008.3 1006.6 0.0
04/07:30pm 25.1 22.4 10.2 39 8.4 S 15 19 8 10 1007.8 1006.0 0.0
04/07:00pm 26.9 23.2 9.3 33 9.8 S 19 24 10 13 1007.4 1005.6 0.0
04/06:30pm 28.4 24.4 9.2 30 10.8 S 20 32 11 17 1007.0 1005.2 0.0
04/06:00pm 29.2 25.1 8.8 28 11.4 S 20 30 11 16 1006.6 1004.8 0.0
04/05:30pm 29.7 24.9 8.7 27 11.8 S 24 32 13 17 1006.0 1004.3 0.0
04/05:00pm 30.4 26.2 9.8 28 11.7 S 22 33 12 18 1005.7 1004.0 0.0
04/04:30pm 30.7 26.4 10.6 29 11.7 S 24 39 13 21 1005.6 1003.9 0.0
04/04:00pm 30.5 25.8 9.4 27 12.0 S 24 33 13 18 1005.6 1003.9 0.0
04/03:30pm 30.6 25.7 10.0 28 11.8 S 26 41 14 22 1005.8 1004.1 0.0
04/03:00pm 30.4 25.8 9.8 28 11.7 S 24 37 13 20 1006.2 1004.4 0.0
04/02:30pm 30.0 25.9 10.0 29 11.4 S 22 33 12 18 1006.5 1004.7 0.0
04/02:00pm 29.9 24.8 10.5 30 11.2 SSW 28 39 15 21 1006.8 1005.0 0.0
04/01:30pm 29.9 25.2 10.5 30 11.2 SSW 26 43 14 23 1007.1 1005.3 0.0
04/01:00pm 29.5 25.5 10.6 31 10.9 S 22 35 12 19 1007.5 1005.7 0.0
04/12:30pm 29.4 25.2 11.0 32 10.7 S 24 35 13 19 1007.9 1006.1 0.0
04/12:00pm 29.3 25.6 11.4 33 10.4 S 22 32 12 17 1008.3 1006.6 0.0
04/11:30am 28.6 24.4 11.2 34 10.1 SSE 24 32 13 17 1008.7 1007.0 0.0
04/11:00am 28.1 24.2 10.8 34 9.9 SSE 22 35 12 19 1008.9 1007.2 0.0
04/10:30am 26.9 21.7 8.8 32 10.0 SSE 26 35 14 19 1009.2 1007.5 0.0
04/10:00am 26.4 20.4 8.8 33 9.7 SSE 30 37 16 20 1009.6 1007.9 0.0
04/09:30am 25.8 19.9 9.2 35 9.2 SE 30 41 16 22 1009.6 1007.9 0.0
04/09:00am 25.3 21.3 10.4 39 8.4 SSE 22 33 12 18 1009.7 1008.0 0.0
04/08:30am 24.1 19.4 10.7 43 7.5 SSE 26 39 14 21 1009.5 1007.8 0.2
04/08:00am 23.5 19.9 11.9 48 6.6 SSE 22 32 12 17 1009.4 1007.7 0.2
04/07:30am 21.7 18.1 12.0 54 5.5 SSE 22 32 12 17 1009.1 1007.4 0.2
04/07:00am 19.7 17.5 13.2 66 3.7 S 17 24 9 13 1009.0 1007.3 0.2
04/06:30am 18.1 16.9 14.0 77 2.4 S 13 19 7 10 1008.5 1006.8 0.2
04/06:00am 16.9 16.3 14.5 86 1.4 S 11 15 6 8 1008.1 1006.3 0.2
04/05:30am 17.7 16.6 14.4 81 1.9 S 13 17 7 9 1007.4 1005.6 0.2
04/05:00am 18.5 16.9 13.8 74 2.7 S 15 20 8 11 1007.1 1005.3 0.2
04/04:30am 18.9 16.9 14.0 73 2.9 S 17 22 9 12 1006.6 1004.8 0.2
04/04:00am 17.4 16.9 14.9 85 1.5 S 11 13 6 7 1006.4 1004.6 0.2
04/03:30am 17.6 16.6 14.7 83 1.7 SSW 13 15 7 8 1006.2 1004.4 0.2
04/03:00am 19.3 18.0 13.7 70 3.2 S 13 17 7 9 1005.9 1004.2 0.2
04/02:30am 20.3 18.4 13.0 63 4.2 S 15 19 8 10 1005.7 1004.0 0.2
04/02:00am 19.0 18.1 13.6 71 3.1 S 11 15 6 8 1005.5 1003.8 0.2
04/01:30am 19.7 18.7 13.4 67 3.6 SSE 11 13 6 7 1005.3 1003.6 0.2
04/01:00am 19.9 18.8 13.1 65 3.9 SSE 11 15 6 8 1005.4 1003.7 0.2
04/12:30am 19.6 18.8 14.0 70 3.3 SSE 11 13 6 7 1005.6 1003.9 0.2
04/12:00am 19.9 19.4 13.8 68 3.5 SSE 9 11 5 6 1005.7 1004.0 0.2
 
Date/Time
CST
Temp
°C
App
Temp
°C
Dew
Point
°C
Rel
Hum
%
Delta-T
°C
Wind Press
QNH
hPa
Press
MSL
hPa
Rain since
9am
mm
Dir  Spd
km/h
Gust
km/h
Spd
kts
Gust
kts
03/11:30pm 20.2 19.3 13.6 66 3.8 SSE 11 13 6 7 1005.7 1004.0 0.2
03/11:00pm 20.4 20.1 14.5 69 3.5 SSE 9 11 5 6 1005.9 1004.2 0.2
03/10:30pm 20.9 20.6 14.5 67 3.8 SSE 9 11 5 6 1006.0 1004.3 0.2
03/10:00pm 21.0 20.6 14.2 65 4.0 SSE 9 11 5 6 1006.0 1004.3 0.2

Other formats

Comma delimited format used in spreadsheet applications
http://www.bom.gov.au/fwo/IDD60801/IDD60801.94255.axf

JavaScript Object Notation format (JSON) in row-major order
http://www.bom.gov.au/fwo/IDD60801/IDD60801.94255.json

Data quality

Most of these data are generated automatically and are frequently updated. Quality checks on data are not normally performed. It is possible for incorrect values to appear. Refer to information at About Latest Weather Observations and please check the disclaimer before using these data.